CSN6225 ZSQD-ZSPD
Flight info
| Callsign | CSN6225 |
|---|---|
| Flight time | N/A |
| Altitude | 23600 |
| Route | LATUX W108 MATNU |
| Aircraft | A320/M-SDE3FGHIRWY/LB1 |
Departure
| Time | 2026-04-14 08:05 |
|---|---|
| Airport | Qingdao Jiaodong International Airport (ZSQD) |
Arrival
| Time | N/A |
|---|---|
| Airport | Shanghai Pudong International Airport (ZSPD) |
| Time | Latitude | Longitude | Altitude | Speed | Heading |
|---|---|---|---|---|---|
| 2026-04-14 07:23 | 36.36017 | 120.08465 | 38 ft | 0 kts | 131° |
| 2026-04-14 07:52 | 36.36018 | 120.08464 | 38 ft | 2 kts | 131° |
| 2026-04-14 07:52 | 36.36037 | 120.08443 | 36 ft | 4 kts | 156° |
| 2026-04-14 07:52 | 36.36062 | 120.08439 | 37 ft | 4 kts | 202° |
| 2026-04-14 07:52 | 36.36079 | 120.08452 | 37 ft | 0 kts | 223° |
| 2026-04-14 07:56 | 36.36078 | 120.08450 | 37 ft | 3 kts | 223° |
| 2026-04-14 07:56 | 36.35989 | 120.08348 | 38 ft | 18 kts | 222° |
| 2026-04-14 07:56 | 36.35923 | 120.08275 | 38 ft | 20 kts | 222° |
| 2026-04-14 07:56 | 36.35822 | 120.08157 | 38 ft | 16 kts | 233° |
| 2026-04-14 07:57 | 36.35775 | 120.08021 | 39 ft | 15 kts | 255° |
| 2026-04-14 07:57 | 36.35826 | 120.07978 | 39 ft | 9 kts | 344° |
| 2026-04-14 07:57 | 36.35906 | 120.07948 | 39 ft | 17 kts | 342° |
| 2026-04-14 07:57 | 36.36033 | 120.07896 | 38 ft | 21 kts | 343° |
| 2026-04-14 07:58 | 36.36182 | 120.07839 | 39 ft | 24 kts | 343° |
| 2026-04-14 07:58 | 36.36352 | 120.07772 | 39 ft | 27 kts | 342° |
| 2026-04-14 07:58 | 36.36531 | 120.07701 | 39 ft | 29 kts | 342° |
| 2026-04-14 07:58 | 36.36702 | 120.07634 | 39 ft | 25 kts | 342° |
| 2026-04-14 07:59 | 36.36846 | 120.07577 | 39 ft | 16 kts | 342° |
| 2026-04-14 07:59 | 36.36908 | 120.07571 | 40 ft | 7 kts | 45° |
| 2026-04-14 07:59 | 36.36938 | 120.07665 | 40 ft | 18 kts | 72° |
| 2026-04-14 07:59 | 36.36985 | 120.07853 | 39 ft | 25 kts | 73° |
| 2026-04-14 08:00 | 36.37041 | 120.08069 | 39 ft | 27 kts | 73° |
| 2026-04-14 08:00 | 36.37100 | 120.08298 | 38 ft | 27 kts | 72° |
| 2026-04-14 08:00 | 36.37158 | 120.08522 | 38 ft | 27 kts | 72° |
| 2026-04-14 08:00 | 36.37213 | 120.08741 | 37 ft | 26 kts | 73° |
| 2026-04-14 08:01 | 36.37271 | 120.08964 | 37 ft | 27 kts | 72° |
| 2026-04-14 08:01 | 36.37318 | 120.09148 | 37 ft | 20 kts | 72° |
| 2026-04-14 08:01 | 36.37358 | 120.09261 | 36 ft | 11 kts | 33° |
| 2026-04-14 08:01 | 36.37429 | 120.09257 | 36 ft | 10 kts | 341° |
| 2026-04-14 08:02 | 36.37528 | 120.09217 | 37 ft | 26 kts | 342° |
| 2026-04-14 08:02 | 36.37713 | 120.09146 | 37 ft | 28 kts | 342° |
| 2026-04-14 08:02 | 36.37888 | 120.09076 | 37 ft | 24 kts | 342° |
| 2026-04-14 08:02 | 36.38019 | 120.09025 | 37 ft | 13 kts | 342° |
| 2026-04-14 08:03 | 36.38081 | 120.09038 | 37 ft | 9 kts | 56° |
| 2026-04-14 08:03 | 36.38105 | 120.09124 | 37 ft | 12 kts | 71° |
| 2026-04-14 08:03 | 36.38117 | 120.09230 | 37 ft | 9 kts | 103° |
| 2026-04-14 08:03 | 36.38103 | 120.09305 | 38 ft | 10 kts | 103° |
| 2026-04-14 08:04 | 36.38027 | 120.09359 | 38 ft | 23 kts | 163° |
| 2026-04-14 08:04 | 36.37644 | 120.09510 | 36 ft | 94 kts | 162° |
| 2026-04-14 08:04 | 36.36831 | 120.09830 | 38 ft | 149 kts | 162° |
| 2026-04-14 08:04 | 36.35777 | 120.10247 | 540 ft | 156 kts | 161° |
| 2026-04-14 08:05 | 36.34753 | 120.10653 | 1241 ft | 155 kts | 161° |
| 2026-04-14 08:05 | 36.33806 | 120.11323 | 1945 ft | 157 kts | 148° |
| 2026-04-14 08:05 | 36.32875 | 120.12072 | 2405 ft | 162 kts | 147° |
| 2026-04-14 08:05 | 36.31932 | 120.12847 | 3022 ft | 163 kts | 146° |
| 2026-04-14 08:06 | 36.30967 | 120.13641 | 3433 ft | 178 kts | 145° |
| 2026-04-14 08:06 | 36.29879 | 120.14533 | 3770 ft | 196 kts | 146° |
| 2026-04-14 08:06 | 36.28690 | 120.15496 | 4123 ft | 213 kts | 146° |
| 2026-04-14 08:06 | 36.27527 | 120.16780 | 4437 ft | 237 kts | 118° |
| 2026-04-14 08:07 | 36.27166 | 120.18815 | 4850 ft | 257 kts | 82° |
| 2026-04-14 08:07 | 36.27583 | 120.21018 | 5564 ft | 266 kts | 73° |
| 2026-04-14 08:07 | 36.28151 | 120.23229 | 6442 ft | 271 kts | 72° |
| 2026-04-14 08:07 | 36.28761 | 120.25454 | 7280 ft | 275 kts | 71° |
| 2026-04-14 08:08 | 36.29383 | 120.27713 | 8122 ft | 279 kts | 72° |
| 2026-04-14 08:08 | 36.29997 | 120.29990 | 8956 ft | 283 kts | 73° |
| 2026-04-14 08:08 | 36.30303 | 120.32430 | 9768 ft | 287 kts | 96° |
| 2026-04-14 08:08 | 36.29675 | 120.34770 | 10466 ft | 292 kts | 123° |
| 2026-04-14 08:09 | 36.28175 | 120.36554 | 10760 ft | 313 kts | 153° |
| 2026-04-14 08:09 | 36.26067 | 120.37547 | 10981 ft | 336 kts | 162° |
| 2026-04-14 08:09 | 36.23799 | 120.38422 | 11290 ft | 354 kts | 164° |
| 2026-04-14 08:09 | 36.21379 | 120.39312 | 11913 ft | 362 kts | 165° |
| 2026-04-14 08:10 | 36.18947 | 120.40206 | 12590 ft | 368 kts | 164° |
| 2026-04-14 08:10 | 36.16512 | 120.41115 | 13277 ft | 373 kts | 164° |
| 2026-04-14 08:10 | 36.13986 | 120.42077 | 13973 ft | 378 kts | 164° |
| 2026-04-14 08:10 | 36.11494 | 120.43040 | 14595 ft | 382 kts | 164° |
| 2026-04-14 08:11 | 36.08913 | 120.44044 | 15229 ft | 386 kts | 165° |
| 2026-04-14 08:11 | 36.06378 | 120.45030 | 15835 ft | 389 kts | 165° |
| 2026-04-14 08:11 | 36.03780 | 120.46037 | 16464 ft | 393 kts | 165° |
| 2026-04-14 08:11 | 36.01162 | 120.47049 | 17071 ft | 397 kts | 166° |
| 2026-04-14 08:12 | 35.98504 | 120.48077 | 17668 ft | 401 kts | 166° |
| 2026-04-14 08:12 | 35.95835 | 120.49145 | 18236 ft | 406 kts | 162° |
| 2026-04-14 08:12 | 35.93225 | 120.50536 | 18720 ft | 412 kts | 160° |
| 2026-04-14 08:12 | 35.90590 | 120.51986 | 19211 ft | 415 kts | 160° |
| 2026-04-14 08:13 | 35.87938 | 120.53444 | 19707 ft | 419 kts | 160° |
| 2026-04-14 08:13 | 35.85267 | 120.54915 | 20194 ft | 423 kts | 160° |
| 2026-04-14 08:13 | 35.82573 | 120.56399 | 20666 ft | 426 kts | 160° |
| 2026-04-14 08:13 | 35.79853 | 120.57894 | 21134 ft | 430 kts | 161° |
| 2026-04-14 08:14 | 35.77106 | 120.59398 | 21594 ft | 433 kts | 161° |
| 2026-04-14 08:14 | 35.74341 | 120.60904 | 22043 ft | 436 kts | 161° |
| 2026-04-14 08:14 | 35.71573 | 120.62481 | 22516 ft | 441 kts | 159° |
| 2026-04-14 08:14 | 35.68828 | 120.64219 | 22959 ft | 446 kts | 157° |
| 2026-04-14 08:15 | 35.66097 | 120.66081 | 23394 ft | 451 kts | 155° |
| 2026-04-14 08:15 | 35.63362 | 120.68016 | 23557 ft | 454 kts | 155° |
| 2026-04-14 08:15 | 35.60594 | 120.69985 | 23584 ft | 464 kts | 155° |
| 2026-04-14 08:15 | 35.57786 | 120.71956 | 23579 ft | 466 kts | 155° |
| 2026-04-14 08:16 | 35.54998 | 120.73878 | 23582 ft | 466 kts | 156° |
| 2026-04-14 08:16 | 35.52160 | 120.75802 | 23583 ft | 466 kts | 156° |
| 2026-04-14 08:16 | 35.49310 | 120.77711 | 23582 ft | 465 kts | 157° |
| 2026-04-14 08:16 | 35.46383 | 120.79325 | 23584 ft | 461 kts | 163° |
| 2026-04-14 08:17 | 35.43400 | 120.80784 | 23581 ft | 461 kts | 163° |
| 2026-04-14 08:17 | 35.40430 | 120.82242 | 23581 ft | 461 kts | 163° |
| 2026-04-14 08:17 | 35.37458 | 120.83710 | 23582 ft | 461 kts | 163° |
| 2026-04-14 08:17 | 35.34481 | 120.85183 | 23581 ft | 461 kts | 163° |
| 2026-04-14 08:18 | 35.31511 | 120.86654 | 23577 ft | 461 kts | 163° |
| 2026-04-14 08:18 | 35.28537 | 120.88127 | 23576 ft | 460 kts | 163° |
| 2026-04-14 08:18 | 35.25565 | 120.89597 | 23574 ft | 460 kts | 163° |
| 2026-04-14 08:18 | 35.22601 | 120.91061 | 23573 ft | 460 kts | 163° |
| 2026-04-14 08:19 | 35.19632 | 120.92528 | 23568 ft | 460 kts | 163° |
| 2026-04-14 08:19 | 35.16671 | 120.93990 | 23571 ft | 459 kts | 163° |
| 2026-04-14 08:19 | 35.13697 | 120.95461 | 23569 ft | 459 kts | 162° |
| 2026-04-14 08:19 | 35.10773 | 120.96913 | 23563 ft | 459 kts | 162° |
| 2026-04-14 08:20 | 35.07809 | 120.98386 | 23567 ft | 459 kts | 162° |
| 2026-04-14 08:20 | 35.04855 | 120.99854 | 23568 ft | 459 kts | 162° |
| 2026-04-14 08:20 | 35.01899 | 121.01322 | 23569 ft | 459 kts | 162° |
| 2026-04-14 08:20 | 34.98937 | 121.02793 | 23566 ft | 459 kts | 162° |
| 2026-04-14 08:21 | 34.95980 | 121.04260 | 23580 ft | 459 kts | 162° |
| 2026-04-14 08:21 | 34.93025 | 121.05722 | 23576 ft | 458 kts | 162° |
| 2026-04-14 08:21 | 34.90067 | 121.07184 | 23566 ft | 458 kts | 162° |
| 2026-04-14 08:21 | 34.87122 | 121.08640 | 23579 ft | 458 kts | 162° |
| 2026-04-14 08:22 | 34.84165 | 121.10102 | 23572 ft | 458 kts | 162° |
| 2026-04-14 08:22 | 34.81209 | 121.11561 | 23572 ft | 458 kts | 162° |
| 2026-04-14 08:22 | 34.78254 | 121.13018 | 23566 ft | 458 kts | 162° |
| 2026-04-14 08:22 | 34.75305 | 121.14468 | 23573 ft | 458 kts | 162° |
| 2026-04-14 08:23 | 34.72345 | 121.15922 | 23571 ft | 458 kts | 162° |
| 2026-04-14 08:23 | 34.69394 | 121.17374 | 23564 ft | 458 kts | 162° |
| 2026-04-14 08:23 | 34.66447 | 121.18828 | 23568 ft | 458 kts | 162° |
| 2026-04-14 08:23 | 34.63500 | 121.20283 | 23572 ft | 457 kts | 162° |
| 2026-04-14 08:24 | 34.60544 | 121.21739 | 23570 ft | 457 kts | 162° |
| 2026-04-14 08:24 | 34.57634 | 121.23169 | 23561 ft | 457 kts | 162° |
| 2026-04-14 08:24 | 34.54690 | 121.24611 | 23561 ft | 457 kts | 162° |
| 2026-04-14 08:24 | 34.51743 | 121.26050 | 23561 ft | 457 kts | 162° |
| 2026-04-14 08:25 | 34.48793 | 121.27489 | 23561 ft | 457 kts | 163° |
| 2026-04-14 08:25 | 34.45850 | 121.28925 | 23569 ft | 456 kts | 162° |
| 2026-04-14 08:25 | 34.42901 | 121.30365 | 23564 ft | 456 kts | 162° |
| 2026-04-14 08:25 | 34.39958 | 121.31800 | 23563 ft | 456 kts | 163° |
| 2026-04-14 08:26 | 34.37015 | 121.33234 | 23561 ft | 456 kts | 162° |
| 2026-04-14 08:26 | 34.34071 | 121.34669 | 23562 ft | 456 kts | 163° |
| 2026-04-14 08:26 | 34.31127 | 121.36105 | 23562 ft | 456 kts | 163° |
| 2026-04-14 08:26 | 34.28186 | 121.37539 | 23562 ft | 456 kts | 163° |
| 2026-04-14 08:27 | 34.25241 | 121.38972 | 23560 ft | 456 kts | 163° |
| 2026-04-14 08:27 | 34.22294 | 121.40403 | 23560 ft | 456 kts | 163° |
| 2026-04-14 08:27 | 34.19346 | 121.41833 | 23559 ft | 456 kts | 163° |
| 2026-04-14 08:27 | 34.16408 | 121.43261 | 23565 ft | 456 kts | 163° |
| 2026-04-14 08:28 | 34.13464 | 121.44693 | 23562 ft | 456 kts | 163° |
| 2026-04-14 08:28 | 34.10526 | 121.46119 | 23561 ft | 455 kts | 163° |
| 2026-04-14 08:28 | 34.07585 | 121.47542 | 23555 ft | 455 kts | 163° |
| 2026-04-14 08:28 | 34.04636 | 121.48963 | 23557 ft | 455 kts | 163° |
| 2026-04-14 08:29 | 34.01696 | 121.50378 | 23558 ft | 455 kts | 163° |
| 2026-04-14 08:29 | 33.98755 | 121.51797 | 23558 ft | 455 kts | 163° |
| 2026-04-14 08:29 | 33.95816 | 121.53216 | 23559 ft | 455 kts | 163° |
| 2026-04-14 08:29 | 33.92881 | 121.54633 | 23561 ft | 455 kts | 163° |
| 2026-04-14 08:30 | 33.89940 | 121.56050 | 23558 ft | 455 kts | 163° |
| 2026-04-14 08:30 | 33.87040 | 121.57444 | 23563 ft | 455 kts | 163° |
| 2026-04-14 08:30 | 33.84067 | 121.58871 | 23561 ft | 455 kts | 163° |
| 2026-04-14 08:30 | 33.81169 | 121.60261 | 23562 ft | 454 kts | 163° |
| 2026-04-14 08:31 | 33.78226 | 121.61675 | 23560 ft | 454 kts | 163° |
| 2026-04-14 08:31 | 33.72358 | 121.64495 | 23555 ft | 454 kts | 163° |
| 2026-04-14 08:31 | 33.69429 | 121.65910 | 23559 ft | 454 kts | 163° |
| 2026-04-14 08:32 | 33.66495 | 121.67343 | 23557 ft | 454 kts | 162° |
| 2026-04-14 08:32 | 33.63572 | 121.68782 | 23554 ft | 454 kts | 162° |
| 2026-04-14 08:32 | 33.60642 | 121.70228 | 23555 ft | 454 kts | 162° |
| 2026-04-14 08:32 | 33.57722 | 121.71665 | 23560 ft | 454 kts | 162° |
| 2026-04-14 08:33 | 33.54792 | 121.73100 | 23561 ft | 454 kts | 162° |
| 2026-04-14 08:33 | 33.51869 | 121.74526 | 23562 ft | 454 kts | 162° |
| 2026-04-14 08:33 | 33.48939 | 121.75954 | 23565 ft | 454 kts | 162° |
| 2026-04-14 08:33 | 33.46015 | 121.77377 | 23559 ft | 454 kts | 162° |
| 2026-04-14 08:34 | 33.43088 | 121.78802 | 23563 ft | 454 kts | 162° |
| 2026-04-14 08:34 | 33.40162 | 121.80228 | 23559 ft | 454 kts | 162° |
| 2026-04-14 08:34 | 33.37240 | 121.81654 | 23555 ft | 454 kts | 162° |
| 2026-04-14 08:34 | 33.34321 | 121.83081 | 23556 ft | 454 kts | 162° |
| 2026-04-14 08:35 | 33.31394 | 121.84508 | 23557 ft | 454 kts | 162° |
| 2026-04-14 08:35 | 33.28471 | 121.85928 | 23556 ft | 453 kts | 162° |
| 2026-04-14 08:35 | 33.25552 | 121.87345 | 23562 ft | 453 kts | 162° |
| 2026-04-14 08:35 | 33.22626 | 121.88765 | 23555 ft | 453 kts | 162° |
| 2026-04-14 08:36 | 33.19701 | 121.90183 | 23557 ft | 453 kts | 162° |
| 2026-04-14 08:36 | 33.16787 | 121.91597 | 23557 ft | 453 kts | 162° |
| 2026-04-14 08:36 | 33.13865 | 121.93011 | 23559 ft | 453 kts | 163° |
| 2026-04-14 08:36 | 33.10945 | 121.94421 | 23557 ft | 453 kts | 163° |
| 2026-04-14 08:37 | 33.08059 | 121.95815 | 23559 ft | 453 kts | 163° |
| 2026-04-14 08:37 | 33.05143 | 121.97225 | 23556 ft | 453 kts | 162° |
| 2026-04-14 08:37 | 33.02228 | 121.98635 | 23555 ft | 453 kts | 163° |
| 2026-04-14 08:37 | 32.99302 | 122.00049 | 23558 ft | 453 kts | 162° |
| 2026-04-14 08:38 | 32.96381 | 122.01463 | 23558 ft | 453 kts | 163° |
| 2026-04-14 08:38 | 32.93468 | 122.02868 | 23555 ft | 453 kts | 163° |
| 2026-04-14 08:38 | 32.90545 | 122.04273 | 23558 ft | 452 kts | 163° |
| 2026-04-14 08:38 | 32.87625 | 122.05673 | 23555 ft | 452 kts | 163° |
| 2026-04-14 08:39 | 32.84704 | 122.07074 | 23556 ft | 452 kts | 163° |
| 2026-04-14 08:39 | 32.81789 | 122.08475 | 23557 ft | 452 kts | 163° |
| 2026-04-14 08:39 | 32.78866 | 122.09878 | 23554 ft | 452 kts | 163° |
| 2026-04-14 08:39 | 32.75944 | 122.11281 | 23554 ft | 452 kts | 163° |
| 2026-04-14 08:40 | 32.73029 | 122.12680 | 23554 ft | 452 kts | 163° |
| 2026-04-14 08:40 | 32.70103 | 122.14084 | 23555 ft | 453 kts | 163° |
| 2026-04-14 08:40 | 32.67184 | 122.15483 | 23550 ft | 453 kts | 163° |
| 2026-04-14 08:40 | 32.64267 | 122.16880 | 23550 ft | 453 kts | 163° |
| 2026-04-14 08:41 | 32.61347 | 122.18279 | 23549 ft | 453 kts | 163° |
| 2026-04-14 08:41 | 32.58460 | 122.19662 | 23546 ft | 453 kts | 163° |
| 2026-04-14 08:41 | 32.55536 | 122.21057 | 23545 ft | 453 kts | 163° |
| 2026-04-14 08:41 | 32.52609 | 122.22448 | 23548 ft | 453 kts | 163° |
| 2026-04-14 08:42 | 32.49686 | 122.23837 | 23548 ft | 453 kts | 163° |
| 2026-04-14 08:42 | 32.46764 | 122.25228 | 23549 ft | 453 kts | 163° |
| 2026-04-14 08:42 | 32.43834 | 122.26623 | 23546 ft | 453 kts | 163° |
| 2026-04-14 08:42 | 32.41864 | 122.27561 | 23547 ft | 453 kts | 163° |
| 2026-04-14 08:43 | 32.37988 | 122.29404 | 23546 ft | 453 kts | 163° |
| 2026-04-14 08:43 | 32.35059 | 122.30794 | 23549 ft | 453 kts | 163° |
| 2026-04-14 08:43 | 32.32132 | 122.32180 | 23548 ft | 453 kts | 163° |
| 2026-04-14 08:43 | 32.30195 | 122.33099 | 23547 ft | 453 kts | 163° |
| 2026-04-14 08:44 | 32.27267 | 122.34491 | 23546 ft | 453 kts | 163° |
| 2026-04-14 08:44 | 32.24366 | 122.35875 | 23194 ft | 444 kts | 163° |
| 2026-04-14 08:44 | 32.21521 | 122.37232 | 22613 ft | 440 kts | 163° |
| 2026-04-14 08:44 | 32.18695 | 122.38576 | 22023 ft | 435 kts | 163° |
| 2026-04-14 08:45 | 32.15882 | 122.39902 | 21702 ft | 434 kts | 163° |
| 2026-04-14 08:45 | 32.13084 | 122.41218 | 21640 ft | 434 kts | 164° |
| 2026-04-14 08:45 | 32.10269 | 122.42539 | 21658 ft | 435 kts | 163° |
| 2026-04-14 08:45 | 32.07460 | 122.43860 | 21652 ft | 435 kts | 164° |
| 2026-04-14 08:46 | 32.04644 | 122.45187 | 21659 ft | 435 kts | 164° |
| 2026-04-14 08:46 | 32.01839 | 122.46511 | 21657 ft | 435 kts | 164° |
| 2026-04-14 08:46 | 31.99041 | 122.47829 | 21659 ft | 434 kts | 164° |
| 2026-04-14 08:46 | 31.96274 | 122.49133 | 21658 ft | 434 kts | 164° |
| 2026-04-14 08:47 | 31.93457 | 122.50458 | 21657 ft | 434 kts | 164° |
| 2026-04-14 08:47 | 31.90666 | 122.51770 | 21237 ft | 429 kts | 164° |
| 2026-04-14 08:47 | 31.87904 | 122.53070 | 20636 ft | 426 kts | 164° |
| 2026-04-14 08:47 | 31.85154 | 122.54363 | 20055 ft | 423 kts | 164° |
| 2026-04-14 08:48 | 31.82428 | 122.55642 | 19501 ft | 420 kts | 163° |
| 2026-04-14 08:48 | 31.79724 | 122.56912 | 18968 ft | 417 kts | 163° |
| 2026-04-14 08:48 | 31.77037 | 122.58172 | 18438 ft | 414 kts | 163° |
| 2026-04-14 08:48 | 31.74371 | 122.59419 | 17889 ft | 412 kts | 163° |
| 2026-04-14 08:49 | 31.71720 | 122.60659 | 17330 ft | 408 kts | 163° |
| 2026-04-14 08:49 | 31.69087 | 122.61891 | 16803 ft | 405 kts | 163° |
| 2026-04-14 08:49 | 31.66479 | 122.63110 | 16293 ft | 401 kts | 163° |
| 2026-04-14 08:49 | 31.63906 | 122.64319 | 15798 ft | 398 kts | 163° |
| 2026-04-14 08:50 | 31.61324 | 122.65442 | 15308 ft | 391 kts | 171° |
| 2026-04-14 08:50 | 31.58681 | 122.65780 | 14841 ft | 377 kts | 188° |
| 2026-04-14 08:50 | 31.56156 | 122.65211 | 14368 ft | 365 kts | 204° |
| 2026-04-14 08:50 | 31.53942 | 122.63845 | 13891 ft | 356 kts | 220° |
| 2026-04-14 08:51 | 31.52187 | 122.61861 | 13359 ft | 349 kts | 234° |
| 2026-04-14 08:51 | 31.50965 | 122.59438 | 12810 ft | 344 kts | 246° |
| 2026-04-14 08:51 | 31.49937 | 122.56921 | 12258 ft | 342 kts | 246° |
| 2026-04-14 08:51 | 31.48903 | 122.54410 | 11851 ft | 341 kts | 245° |
| 2026-04-14 08:52 | 31.47865 | 122.51911 | 11812 ft | 341 kts | 245° |
| 2026-04-14 08:52 | 31.46834 | 122.49427 | 11449 ft | 337 kts | 245° |
| 2026-04-14 08:52 | 31.45682 | 122.47039 | 10885 ft | 337 kts | 236° |
| 2026-04-14 08:52 | 31.44138 | 122.45012 | 10344 ft | 339 kts | 224° |
| 2026-04-14 08:53 | 31.42214 | 122.43420 | 9894 ft | 338 kts | 211° |
| 2026-04-14 08:53 | 31.40140 | 122.42245 | 9765 ft | 324 kts | 209° |
| 2026-04-14 08:53 | 31.38151 | 122.41118 | 9636 ft | 311 kts | 210° |
| 2026-04-14 08:53 | 31.36245 | 122.40025 | 9499 ft | 298 kts | 210° |
| 2026-04-14 08:54 | 31.34434 | 122.38979 | 9374 ft | 286 kts | 210° |
| 2026-04-14 08:54 | 31.32667 | 122.37961 | 9170 ft | 279 kts | 210° |
| 2026-04-14 08:54 | 31.30935 | 122.36964 | 8842 ft | 276 kts | 210° |
| 2026-04-14 08:54 | 31.29219 | 122.35978 | 8477 ft | 275 kts | 210° |
| 2026-04-14 08:55 | 31.27501 | 122.34990 | 8098 ft | 274 kts | 210° |
| 2026-04-14 08:55 | 31.25793 | 122.34014 | 7724 ft | 273 kts | 210° |
| 2026-04-14 08:55 | 31.24087 | 122.33041 | 7333 ft | 272 kts | 210° |
| 2026-04-14 08:55 | 31.22388 | 122.32072 | 6951 ft | 271 kts | 210° |
| 2026-04-14 08:56 | 31.20692 | 122.31104 | 6574 ft | 270 kts | 210° |
| 2026-04-14 08:56 | 31.19009 | 122.30141 | 6188 ft | 269 kts | 210° |
| 2026-04-14 08:56 | 31.17347 | 122.29191 | 5785 ft | 269 kts | 210° |
| 2026-04-14 08:56 | 31.15646 | 122.28222 | 5353 ft | 269 kts | 209° |
| 2026-04-14 08:57 | 31.13964 | 122.27268 | 4954 ft | 269 kts | 209° |
| 2026-04-14 08:57 | 31.12334 | 122.26344 | 4816 ft | 258 kts | 209° |
| 2026-04-14 08:57 | 31.10748 | 122.25445 | 4609 ft | 251 kts | 209° |
| 2026-04-14 08:57 | 31.09185 | 122.24554 | 4272 ft | 249 kts | 209° |
| 2026-04-14 08:58 | 31.07638 | 122.23670 | 4082 ft | 247 kts | 209° |
| 2026-04-14 08:58 | 31.06082 | 122.22781 | 3956 ft | 248 kts | 208° |
| 2026-04-14 08:58 | 31.04554 | 122.21915 | 3829 ft | 240 kts | 208° |
| 2026-04-14 08:58 | 31.03080 | 122.21081 | 3703 ft | 231 kts | 208° |
| 2026-04-14 08:59 | 31.01661 | 122.20277 | 3576 ft | 223 kts | 208° |
| 2026-04-14 08:59 | 31.00287 | 122.19498 | 3456 ft | 215 kts | 208° |
| 2026-04-14 08:59 | 30.98968 | 122.18749 | 3387 ft | 208 kts | 208° |
| 2026-04-14 08:59 | 30.97672 | 122.18010 | 3307 ft | 207 kts | 208° |
| 2026-04-14 09:00 | 30.96382 | 122.17275 | 3234 ft | 206 kts | 208° |
| 2026-04-14 09:00 | 30.95090 | 122.16541 | 3162 ft | 206 kts | 208° |
| 2026-04-14 09:00 | 30.93817 | 122.15819 | 3085 ft | 206 kts | 208° |
| 2026-04-14 09:00 | 30.92531 | 122.15090 | 3023 ft | 205 kts | 208° |
| 2026-04-14 09:01 | 30.91245 | 122.14360 | 3026 ft | 206 kts | 208° |
| 2026-04-14 09:01 | 30.89954 | 122.13629 | 3026 ft | 206 kts | 208° |
| 2026-04-14 09:01 | 30.88665 | 122.12899 | 3028 ft | 206 kts | 208° |
| 2026-04-14 09:01 | 30.87374 | 122.12169 | 3033 ft | 207 kts | 208° |
| 2026-04-14 09:02 | 30.86082 | 122.11439 | 3036 ft | 206 kts | 208° |
| 2026-04-14 09:02 | 30.84791 | 122.10710 | 3035 ft | 206 kts | 208° |
| 2026-04-14 09:02 | 30.83504 | 122.09980 | 3033 ft | 206 kts | 208° |
| 2026-04-14 09:02 | 30.82214 | 122.09249 | 3033 ft | 207 kts | 208° |
| 2026-04-14 09:03 | 30.80987 | 122.08398 | 3026 ft | 204 kts | 223° |
| 2026-04-14 09:03 | 30.80031 | 122.07201 | 3029 ft | 200 kts | 239° |
| 2026-04-14 09:03 | 30.79415 | 122.05759 | 3029 ft | 198 kts | 255° |
| 2026-04-14 09:03 | 30.79003 | 122.04229 | 3012 ft | 199 kts | 255° |
| 2026-04-14 09:04 | 30.78584 | 122.02723 | 2935 ft | 192 kts | 255° |
| 2026-04-14 09:04 | 30.78177 | 122.01269 | 2830 ft | 188 kts | 255° |
| 2026-04-14 09:04 | 30.77774 | 121.99830 | 2730 ft | 187 kts | 254° |
| 2026-04-14 09:04 | 30.77411 | 121.98390 | 2618 ft | 184 kts | 265° |
| 2026-04-14 09:05 | 30.77590 | 121.96961 | 2518 ft | 180 kts | 297° |
| 2026-04-14 09:05 | 30.78392 | 121.95866 | 2423 ft | 179 kts | 327° |
| 2026-04-14 09:05 | 30.79545 | 121.95333 | 2408 ft | 179 kts | 342° |
| 2026-04-14 09:05 | 30.80737 | 121.94891 | 2382 ft | 180 kts | 341° |
| 2026-04-14 09:06 | 30.81928 | 121.94445 | 2357 ft | 181 kts | 341° |
| 2026-04-14 09:06 | 30.83124 | 121.93992 | 2337 ft | 180 kts | 341° |
| 2026-04-14 09:06 | 30.84313 | 121.93539 | 2301 ft | 180 kts | 341° |
| 2026-04-14 09:06 | 30.85465 | 121.93104 | 2275 ft | 179 kts | 341° |
| 2026-04-14 09:07 | 30.86651 | 121.92659 | 2248 ft | 180 kts | 341° |
| 2026-04-14 09:07 | 30.87825 | 121.92219 | 2221 ft | 179 kts | 341° |
| 2026-04-14 09:07 | 30.89030 | 121.91767 | 2174 ft | 180 kts | 341° |
| 2026-04-14 09:07 | 30.90131 | 121.91354 | 2102 ft | 179 kts | 341° |
| 2026-04-14 09:08 | 30.91316 | 121.90910 | 2019 ft | 179 kts | 341° |
| 2026-04-14 09:08 | 30.92505 | 121.90463 | 2010 ft | 180 kts | 341° |
| 2026-04-14 09:08 | 30.93694 | 121.90017 | 2009 ft | 179 kts | 341° |
| 2026-04-14 09:08 | 30.94878 | 121.89573 | 2008 ft | 179 kts | 341° |
| 2026-04-14 09:09 | 30.96069 | 121.89126 | 2007 ft | 179 kts | 341° |
| 2026-04-14 09:09 | 30.97257 | 121.88679 | 2011 ft | 179 kts | 341° |
| 2026-04-14 09:09 | 30.98441 | 121.88234 | 2009 ft | 178 kts | 341° |
| 2026-04-14 09:09 | 30.99603 | 121.87798 | 2003 ft | 169 kts | 341° |
| 2026-04-14 09:10 | 31.00675 | 121.87395 | 1998 ft | 156 kts | 341° |
| 2026-04-14 09:10 | 31.01691 | 121.87013 | 2002 ft | 150 kts | 341° |
| 2026-04-14 09:10 | 31.02660 | 121.86649 | 2009 ft | 143 kts | 341° |
| 2026-04-14 09:10 | 31.03596 | 121.86296 | 1881 ft | 139 kts | 341° |
| 2026-04-14 09:11 | 31.04508 | 121.85953 | 1728 ft | 137 kts | 341° |
| 2026-04-14 09:11 | 31.05413 | 121.85613 | 1549 ft | 136 kts | 341° |
| 2026-04-14 09:11 | 31.06314 | 121.85274 | 1370 ft | 135 kts | 342° |
| 2026-04-14 09:11 | 31.07207 | 121.84937 | 1189 ft | 135 kts | 342° |
| 2026-04-14 09:12 | 31.08102 | 121.84600 | 1009 ft | 135 kts | 342° |
| 2026-04-14 09:12 | 31.08983 | 121.84269 | 822 ft | 134 kts | 342° |
| 2026-04-14 09:12 | 31.09866 | 121.83932 | 628 ft | 133 kts | 342° |
| 2026-04-14 09:12 | 31.10750 | 121.83598 | 467 ft | 135 kts | 342° |
| 2026-04-14 09:13 | 31.11648 | 121.83261 | 295 ft | 135 kts | 342° |
| 2026-04-14 09:13 | 31.12541 | 121.82929 | 107 ft | 134 kts | 341° |
| 2026-04-14 09:13 | 31.13403 | 121.82608 | 31 ft | 120 kts | 341° |
| 2026-04-14 09:13 | 31.13661 | 121.82506 | 26 ft | 111 kts | 341° |